Data for 10/31/2016

Time Sea-Level Adjusted Pressure Absolute Pressure Temperature Relative Humidity Dew Point   
(mb) (inHg) (mb) (inHg) (C) (F) (%) (C) (F)
00:05 1006 29.71 835 24.66 8.6 47.4 82 5.6 42.1
00:10 1006 29.71 835 24.66 8.7 47.6 82 5.8 42.5
00:15 1006 29.71 835 24.66 8.5 47.3 84 6 42.8
00:20 1006 29.71 835 24.66 8.4 47.2 83 5.6 42.2
00:25 1006 29.71 836 24.69 8.7 47.6 84 6.2 43.1
00:30 1006 29.71 836 24.69 8.6 47.5 86 6.5 43.6
00:35 1006 29.71 836 24.69 8.4 47.2 87 6.4 43.5
00:40 1006 29.71 836 24.69 8.3 47 88 6.4 43.5
00:45 1006 29.71 836 24.69 8.2 46.7 87 6.2 43.2
00:50 1006 29.71 836 24.69 8.2 46.7 86 5.9 42.6
00:55 1006 29.71 836 24.69 8.3 46.9 83 5.7 42.2
01:00 1007 29.74 836 24.69 8.5 47.3 84 6 42.9
01:05 1006 29.71 836 24.69 8.5 47.2 85 6.1 43
01:10 1006 29.71 836 24.69 8.4 47 83 5.7 42.2
01:15 1007 29.74 836 24.69 8.4 47.2 82 5.6 42.1
01:20 1007 29.74 836 24.69 8.5 47.2 83 5.8 42.4
01:25 1006 29.71 836 24.69 8.3 47 83 5.7 42.2
01:30 1006 29.71 835 24.66 8.1 46.6 84 5.6 42.1
01:35 1006 29.71 835 24.66 8.1 46.5 84 5.6 42
01:40 1006 29.71 836 24.69 8.1 46.5 85 5.7 42.3
01:45 1006 29.71 836 24.69 8.1 46.5 84 5.5 41.9
01:50 1006 29.71 835 24.66 8 46.5 84 5.5 42
01:55 1006 29.71 835 24.66 8 46.4 84 5.4 41.7
02:00 1006 29.71 835 24.66 7.9 46.2 85 5.6 42.1
02:05 1006 29.71 835 24.66 7.8 46 85 5.5 41.9
02:10 1006 29.71 835 24.66 7.9 46.2 84 5.4 41.7
02:15 1006 29.71 835 24.66 7.9 46.3 84 5.5 41.8
02:20 1006 29.71 835 24.66 8.2 46.7 83 5.4 41.7
02:25 1006 29.71 836 24.69 8.2 46.8 84 5.6 42.1
02:30 1007 29.74 836 24.69 8.1 46.6 84 5.6 42.1
02:35 1007 29.74 836 24.69 8 46.5 83 5.3 41.6
02:40 1007 29.74 836 24.69 8.2 46.7 77 4.4 40
02:45 1007 29.74 836 24.69 8.4 47.1 75 4.2 39.5
02:50 1006 29.71 836 24.69 8.6 47.6 73 4.1 39.4
02:55 1007 29.74 836 24.69 8.8 47.8 73 4.2 39.6
03:00 1007 29.74 836 24.69 8.6 47.5 73 4.1 39.3
03:05 1007 29.74 836 24.69 8.6 47.5 67 2.8 37.1
03:10 1007 29.74 836 24.69 9.1 48.4 55 0.5 32.8
03:15 1007 29.74 836 24.69 9.2 48.6 54 0.5 32.9
03:20 1007 29.74 836 24.69 9.1 48.4 54 0.3 32.6
03:25 1007 29.74 836 24.69 9 48.1 56 0.7 33.3
03:30 1007 29.74 836 24.69 8.7 47.7 59 1.2 34.2
03:35 1007 29.74 836 24.69 8.5 47.3 60 1.3 34.3
03:40 1007 29.74 836 24.69 8.3 46.9 61 1.3 34.3
03:45 1007 29.74 836 24.69 8.1 46.5 61 1.1 33.9
03:50 1007 29.74 836 24.69 8 46.4 61 1.1 33.9
03:55 1007 29.74 836 24.69 7.8 46.1 62 1 33.8
04:00 1007 29.74 836 24.69 7.8 46 62 0.9 33.7
04:05 1008 29.77 837 24.72 7.7 45.9 62 1 33.8
04:10 1008 29.77 837 24.72 7.6 45.7 62 0.8 33.5
04:15 1008 29.77 837 24.72 7.5 45.5 64 1.1 34
04:20 1008 29.77 837 24.72 7.3 45.1 67 1.5 34.7
04:25 1008 29.77 837 24.72 7 44.6 68 1.6 34.9
04:30 1008 29.77 838 24.75 6.9 44.5 69 1.6 34.9
04:35 1008 29.77 838 24.75 7 44.5 67 1.3 34.3
04:40 1008 29.77 838 24.75 7 44.6 63 0.5 32.9
04:45 1008 29.77 838 24.75 7.3 45.1 58 -0.4 31.3
04:50 1008 29.77 838 24.75 7.8 46 49 -2.3 27.8
04:55 1008 29.77 838 24.75 8.4 47.1 48 -2.1 28.3
05:00 1008 29.77 838 24.75 8.5 47.3 49 -1.5 29.3
05:05 1009 29.8 838 24.75 8.3 47 49 -1.8 28.8
05:10 1009 29.8 838 24.75 8.3 47 49 -1.7 29
05:15 1009 29.8 838 24.75 8.1 46.5 51 -1.4 29.4
05:20 1009 29.8 838 24.75 8 46.3 50 -1.8 28.8
05:25 1009 29.8 838 24.75 7.9 46.2 48 -2.4 27.7
05:30 1009 29.8 838 24.75 7.9 46.1 50 -1.9 28.6
05:35 1009 29.8 838 24.75 7.7 45.8 50 -2 28.4
05:40 1009 29.8 838 24.75 7.6 45.7 50 -2.1 28.3
05:45 1009 29.8 838 24.75 7.6 45.6 51 -2 28.5
05:50 1009 29.8 838 24.75 7.4 45.3 50 -2.2 28
05:55 1009 29.8 838 24.75 7.3 45.2 50 -2.4 27.7
06:00 1009 29.8 838 24.75 7.4 45.3 49 -2.6 27.3
06:05 1009 29.8 838 24.75 7.5 45.4 48 -2.7 27.1
06:10 1009 29.8 838 24.75 7.4 45.3 49 -2.6 27.4
06:15 1009 29.8 838 24.75 7.3 45.2 48 -2.9 26.8
06:20 1009 29.8 838 24.75 7.4 45.3 49 -2.6 27.3
06:25 1009 29.8 838 24.75 7.3 45.2 49 -2.7 27.2
06:30 1009 29.8 838 24.75 7.3 45.1 49 -2.8 26.9
06:35 1009 29.8 838 24.75 7.2 45 48 -3 26.7
06:40 1009 29.8 838 24.75 7.3 45.2 48 -3 26.6
06:45 1009 29.8 838 24.75 7.4 45.4 47 -3.1 26.5
06:50 1009 29.8 838 24.75 7.4 45.3 48 -3 26.6
06:55 1009 29.8 838 24.75 7.3 45.2 47 -3.3 26.1
07:00 1009 29.8 838 24.75 7.4 45.2 48 -2.9 26.7
07:05 1009 29.8 838 24.75 7.2 45 47 -3.3 26
07:10 1009 29.8 839 24.78 7.2 45 47 -3.2 26.3
07:15 1009 29.8 839 24.78 7 44.7 48 -3.1 26.4
07:20 1009 29.8 839 24.78 6.8 44.3 49 -3.1 26.4
07:25 1009 29.8 839 24.78 6.7 44.1 49 -3.1 26.3
07:30 1010 29.83 839 24.78 6.9 44.4 48 -3.3 26.1
07:35 1010 29.83 839 24.78 7.1 44.8 48 -3.2 26.2
07:40 1010 29.83 839 24.78 7.2 44.9 47 -3.4 25.9
07:45 1010 29.83 839 24.78 7.3 45.1 42 -4.8 23.3
07:50 1010 29.83 839 24.78 8 46.5 40 -4.8 23.3
07:55 1010 29.83 839 24.78 8.3 47 39 -4.8 23.3
08:00 1010 29.83 839 24.78 8.6 47.5 38 -4.8 23.4
08:05 1010 29.83 839 24.78 8.5 47.4 39 -4.6 23.7
08:10 1010 29.83 839 24.78 8.5 47.2 39 -4.8 23.4
08:15 1010 29.83 840 24.81 8.6 47.5 37 -5.2 22.7
08:20 1010 29.83 840 24.81 8.9 48 38 -4.6 23.7
08:25 1010 29.83 840 24.81 8.8 47.9 36 -5.3 22.4
08:30 1010 29.83 840 24.81 9.3 48.8 36 -5.1 22.9
08:35 1011 29.85 840 24.81 9.2 48.6 35 -5.4 22.3
08:40 1011 29.85 840 24.81 8.9 48.1 36 -5.5 22.1
08:45 1011 29.85 840 24.81 8.7 47.7 37 -5.2 22.7
08:50 1011 29.85 840 24.81 8.6 47.6 36 -5.5 22
08:55 1011 29.85 840 24.81 8.7 47.7 35 -5.8 21.6
09:00 1011 29.85 840 24.81 8.8 47.8 36 -5.6 22
09:05 1011 29.85 840 24.81 8.8 47.8 36 -5.5 22
09:10 1011 29.85 840 24.81 8.8 47.8 37 -5.2 22.6
09:15 1011 29.85 840 24.81 8.7 47.7 36 -5.4 22.3
09:20 1011 29.85 840 24.81 8.8 47.9 35 -5.9 21.4
09:25 1011 29.85 840 24.81 8.9 48 36 -5.3 22.4
09:30 1011 29.85 840 24.81 8.9 48 34 -6.2 20.8
09:35 1011 29.85 840 24.81 8.9 48 35 -5.8 21.6
09:40 1011 29.85 840 24.81 8.9 48.1 35 -5.9 21.4
09:45 1011 29.85 840 24.81 9.4 48.9 33 -6 21.2
09:50 1011 29.85 840 24.81 9.8 49.6 32 -6.1 21.1
09:55 1011 29.85 840 24.81 9.6 49.3 33 -6 21.2
10:00 1011 29.85 840 24.81 9.4 49 33 -6 21.2
10:05 1011 29.85 840 24.81 9.3 48.8 33 -6.1 21
10:10 1011 29.85 840 24.81 9.3 48.7 33 -6.2 20.9
10:15 1011 29.85 840 24.81 9.5 49 34 -5.6 21.9
10:20 1011 29.85 840 24.81 9.5 49.1 32 -6.5 20.3
10:25 1011 29.85 840 24.81 9.8 49.7 31 -6.3 20.6
10:30 1011 29.85 840 24.81 10.2 50.3 32 -5.6 22
10:35 1011 29.85 840 24.81 10.3 50.5 32 -5.7 21.8
10:40 1011 29.85 840 24.81 10.5 50.8 30 -6.4 20.5
10:45 1011 29.85 840 24.81 10.5 50.8 29 -6.6 20.1
10:50 1011 29.85 840 24.81 10.3 50.6 31 -6 21.2
10:55 1011 29.85 840 24.81 10.4 50.8 30 -6.2 20.8
11:00 1011 29.85 840 24.81 10.3 50.6 31 -6.1 21.1
11:05 1011 29.85 840 24.81 10.4 50.8 31 -6 21.1
11:10 1011 29.85 840 24.81 10.3 50.6 32 -5.8 21.6
11:15 1011 29.85 840 24.81 10.4 50.7 31 -6 21.1
11:20 1011 29.85 840 24.81 10.5 50.8 30 -6.3 20.6
11:25 1011 29.85 840 24.81 10.8 51.4 30 -6 21.3
11:30 1011 29.85 840 24.81 10.8 51.4 30 -6.2 20.9
11:35 1011 29.85 840 24.81 10.8 51.5 31 -5.8 21.6
11:40 1011 29.85 840 24.81 10.9 51.5 30 -6 21.2
11:45 1011 29.85 840 24.81 10.6 51.1 31 -5.8 21.5
11:50 1011 29.85 840 24.81 10.5 50.9 32 -5.6 21.9
11:55 1011 29.85 840 24.81 10.7 51.2 31 -5.9 21.3
12:00 1011 29.85 840 24.81 11 51.9 31 -5.4 22.3
12:05 1011 29.85 840 24.81 11.4 52.5 30 -5.7 21.8
12:10 1011 29.85 840 24.81 11.4 52.5 29 -6 21.1
12:15 1011 29.85 840 24.81 11.2 52.2 29 -6.2 20.9
12:20 1011 29.85 840 24.81 11.4 52.5 28 -6.3 20.6
12:25 1011 29.85 840 24.81 11.3 52.4 28 -6.3 20.7
12:30 1011 29.85 840 24.81 10.8 51.5 30 -6.2 20.8
12:35 1011 29.85 840 24.81 11.2 52.1 28 -6.7 20
12:40 1011 29.85 840 24.81 11.6 52.8 30 -5.6 21.9
12:45 1011 29.85 840 24.81 12 53.5 27 -6.2 20.9
12:50 1011 29.85 840 24.81 11.9 53.4 27 -6.3 20.7
12:55 1011 29.85 840 24.81 11.8 53.2 28 -5.9 21.3
13:00 1011 29.85 840 24.81 11.9 53.4 28 -5.9 21.3
13:05 1011 29.85 840 24.81 11.6 52.8 29 -6 21.3
13:10 1011 29.85 840 24.81 10.9 51.6 29 -6.4 20.5
13:15 1011 29.85 840 24.81 10.9 51.6 31 -5.7 21.8
13:20 1011 29.85 840 24.81 11.2 52.2 27 -6.9 19.6
13:25 1011 29.85 840 24.81 10.9 51.6 28 -7.1 19.3
13:30 1011 29.85 840 24.81 10.8 51.4 29 -6.6 20.1
13:35 1011 29.85 840 24.81 10.7 51.3 30 -6.3 20.6
13:40 1011 29.85 840 24.81 10.6 51.1 29 -6.7 20
13:45 1011 29.85 840 24.81 10.5 50.9 30 -6.2 20.8
13:50 1011 29.85 840 24.81 10.4 50.8 33 -5.3 22.5
13:55 1011 29.85 840 24.81 10.4 50.6 33 -5.2 22.6
14:00 1011 29.85 840 24.81 10.4 50.7 31 -5.9 21.4
14:05 1011 29.85 840 24.81 10.4 50.7 30 -6.2 20.8
14:10 1011 29.85 840 24.81 10.5 50.9 32 -5.6 21.9
14:15 1011 29.85 840 24.81 10.6 51 31 -6 21.2
14:20 1011 29.85 841 24.83 11.1 52 30 -5.7 21.8
14:25 1011 29.85 841 24.83 11.7 53 29 -5.5 22.1
14:30 1011 29.85 841 24.83 11.8 53.3 29 -5.7 21.7
14:35 1011 29.85 841 24.83 11.6 53 29 -5.6 22
14:40 1012 29.88 841 24.83 11.4 52.4 30 -5.6 21.9
14:45 1011 29.85 841 24.83 10.9 51.5 31 -5.8 21.6
14:50 1012 29.88 841 24.83 10.8 51.4 31 -5.6 21.9
14:55 1012 29.88 841 24.83 10.7 51.2 29 -6.7 19.9
15:00 1012 29.88 841 24.83 10.7 51.2 30 -6.2 20.8
15:05 1012 29.88 841 24.83 10.8 51.5 30 -6.2 20.8
15:10 1012 29.88 841 24.83 10.8 51.4 30 -6 21.2
15:15 1012 29.88 841 24.83 10.6 51.2 30 -6.3 20.7
15:20 1012 29.88 841 24.83 10.7 51.3 30 -6.3 20.6
15:25 1012 29.88 841 24.83 10.7 51.2 31 -5.9 21.4
15:30 1012 29.88 841 24.83 10.7 51.2 31 -5.9 21.4
15:35 1012 29.88 841 24.83 11 51.9 28 -6.5 20.3
15:40 1012 29.88 841 24.83 11.2 52.2 29 -6.1 21.1
15:45 1012 29.88 841 24.83 11.4 52.5 29 -6.1 21.1
15:50 1012 29.88 841 24.83 11.5 52.7 28 -6.3 20.6
15:55 1012 29.88 841 24.83 11.4 52.5 28 -6.4 20.5
16:00 1012 29.88 842 24.86 11.4 52.4 28 -6.3 20.6
16:05 1012 29.88 842 24.86 11.2 52.2 29 -5.9 21.3
16:10 1012 29.88 841 24.83 11.1 52 29 -6.1 21.1
16:15 1012 29.88 841 24.83 10.6 51.1 31 -6 21.3
16:20 1012 29.88 841 24.83 10.5 50.9 30 -6.5 20.4
16:25 1012 29.88 841 24.83 10.6 51.1 30 -6.2 20.8
16:30 1012 29.88 841 24.83 10.8 51.5 29 -6.5 20.3
16:35 1012 29.88 841 24.83 10.6 51.1 30 -6.4 20.5
16:40 1012 29.88 842 24.86 10.5 50.8 30 -6.4 20.5
16:45 1012 29.88 842 24.86 10.4 50.7 30 -6.5 20.4
16:50 1012 29.88 842 24.86 10.3 50.5 30 -6.5 20.4
16:55 1013 29.91 842 24.86 10.2 50.3 30 -6.5 20.2
17:00 1013 29.91 842 24.86 10.1 50.1 31 -6.1 20.9
17:05 1013 29.91 842 24.86 9.9 49.8 31 -6.2 20.8
17:10 1013 29.91 842 24.86 9.8 49.6 32 -6.3 20.6
17:15 1013 29.91 842 24.86 9.7 49.5 32 -6.1 20.9
17:20 1013 29.91 842 24.86 9.7 49.4 32 -6.3 20.7
17:25 1013 29.91 842 24.86 9.7 49.4 32 -6.3 20.6
17:30 1013 29.91 842 24.86 9.7 49.4 31 -6.5 20.4
17:35 1013 29.91 842 24.86 9.6 49.2 33 -6 21.2
17:40 1013 29.91 842 24.86 9.4 49 33 -6.2 20.8
17:45 1013 29.91 842 24.86 9.3 48.8 33 -6 21.2
17:50 1013 29.91 842 24.86 9.1 48.3 34 -6 21.3
17:55 1013 29.91 842 24.86 9 48.3 34 -6 21.1
18:00 1013 29.91 842 24.86 9.1 48.4 34 -5.9 21.4
18:05 1013 29.91 842 24.86 9 48.3 34 -5.9 21.4
18:10 1013 29.91 842 24.86 9 48.2 34 -6 21.2
18:15 1013 29.91 842 24.86 9 48.1 34 -5.9 21.4
18:20 1013 29.91 842 24.86 8.9 48.1 34 -5.9 21.3
18:25 1013 29.91 842 24.86 8.8 47.9 35 -5.8 21.5
18:30 1013 29.91 842 24.86 8.8 47.9 34 -6.3 20.6
18:35 1013 29.91 842 24.86 9 48.1 34 -5.9 21.3
18:40 1013 29.91 842 24.86 8.9 48 34 -6.1 21
18:45 1013 29.91 842 24.86 8.9 48.1 35 -5.9 21.4
18:50 1013 29.91 842 24.86 8.9 48 35 -5.7 21.7
18:55 1013 29.91 842 24.86 8.8 47.8 36 -5.6 21.9
19:00 1013 29.91 842 24.86 8.7 47.6 36 -5.5 22.2
19:05 1013 29.91 842 24.86 8.7 47.6 37 -5.1 22.8
19:10 1013 29.91 842 24.86 8.6 47.4 39 -4.6 23.6
19:15 1013 29.91 842 24.86 8.4 47.1 41 -4.1 24.6
19:20 1013 29.91 842 24.86 8.2 46.8 41 -4.2 24.4
19:25 1013 29.91 842 24.86 8.3 46.9 40 -4.4 24.1
19:30 1013 29.91 842 24.86 8.4 47.1 39 -4.7 23.6
19:35 1013 29.91 842 24.86 8.5 47.3 39 -4.6 23.7
19:40 1013 29.91 842 24.86 8.5 47.3 39 -4.6 23.8
19:45 1013 29.91 842 24.86 8.5 47.3 40 -4.4 24.1
19:50 1013 29.91 842 24.86 8.4 47.1 40 -4.4 24.2
19:55 1013 29.91 842 24.86 8.2 46.8 41 -4.4 24.1
20:00 1013 29.91 843 24.89 8.2 46.7 41 -4.3 24.3
20:05 1013 29.91 843 24.89 8.1 46.5 41 -4.3 24.3
20:10 1013 29.91 843 24.89 8 46.4 41 -4.4 24
20:15 1013 29.91 843 24.89 7.9 46.3 41 -4.7 23.6
20:20 1014 29.94 843 24.89 7.7 45.9 42 -4.5 23.9
20:25 1014 29.94 843 24.89 7.5 45.5 42 -4.7 23.5
20:30 1013 29.91 843 24.89 7.5 45.5 39 -5.5 22.2
20:35 1013 29.91 843 24.89 7.7 45.8 39 -5.6 22
20:40 1014 29.94 843 24.89 7.6 45.8 41 -4.9 23.2
20:45 1014 29.94 843 24.89 7.3 45.1 42 -4.7 23.6
20:50 1014 29.94 843 24.89 7.4 45.2 41 -5.1 22.8
20:55 1014 29.94 843 24.89 7.7 45.8 39 -5.5 22.1
21:00 1014 29.94 843 24.89 7.9 46.3 38 -5.5 22.1
21:05 1014 29.94 843 24.89 8 46.5 38 -5.6 22
21:10 1014 29.94 843 24.89 8.1 46.6 37 -5.5 22
21:15 1014 29.94 843 24.89 8.1 46.6 38 -5.5 22.2
21:20 1014 29.94 843 24.89 8 46.4 41 -4.6 23.7
21:25 1014 29.94 843 24.89 8.2 46.7 41 -4.1 24.6
21:30 1014 29.94 843 24.89 8.3 47 42 -3.8 25.1
21:35 1014 29.94 843 24.89 8.3 46.9 42 -3.8 25.1
21:40 1014 29.94 843 24.89 8.3 46.9 42 -3.9 24.9
21:45 1014 29.94 843 24.89 8.3 46.9 43 -3.5 25.6
21:50 1014 29.94 843 24.89 8.2 46.7 43 -3.7 25.4
21:55 1014 29.94 843 24.89 8.2 46.8 43 -3.7 25.4
22:00 1014 29.94 843 24.89 8.2 46.7 44 -3.5 25.7
22:05 1014 29.94 843 24.89 8.2 46.7 40 -4.5 24
22:10 1014 29.94 843 24.89 8.4 47 43 -3.5 25.6
22:15 1014 29.94 843 24.89 8 46.5 45 -3.1 26.4
22:20 1014 29.94 843 24.89 7.9 46.2 47 -2.8 27
22:25 1014 29.94 843 24.89 7.8 46 49 -2.2 28
22:30 1014 29.94 843 24.89 7.6 45.7 51 -2 28.4
22:35 1014 29.94 843 24.89 7.3 45.2 52 -1.9 28.5
22:40 1014 29.94 843 24.89 7.3 45.2 51 -2.1 28.2
22:45 1014 29.94 843 24.89 7.3 45.1 53 -1.6 29
22:50 1014 29.94 843 24.89 7.2 44.9 53 -1.8 28.8
22:55 1014 29.94 843 24.89 7 44.6 54 -1.7 28.9
23:00 1014 29.94 843 24.89 6.8 44.3 53 -2 28.4
23:05 1014 29.94 843 24.89 6.9 44.4 53 -2 28.4
23:10 1014 29.94 843 24.89 7 44.5 52 -2.3 27.9
23:15 1013 29.91 843 24.89 7 44.6 52 -2.2 28
23:20 1014 29.94 843 24.89 7 44.7 51 -2.3 27.8
23:25 1014 29.94 843 24.89 7.2 44.9 51 -2.4 27.8
23:30 1014 29.94 843 24.89 7.3 45.1 50 -2.6 27.4
23:35 1014 29.94 843 24.89 7.3 45.2 49 -2.6 27.4
23:40 1014 29.94 843 24.89 7.3 45.1 50 -2.4 27.6
23:45 1013 29.91 843 24.89 7.2 45 50 -2.5 27.4
23:50 1013 29.91 843 24.89 7.2 45 50 -2.4 27.7
23:55 1013 29.91 843 24.89 7.2 45 50 -2.6 27.4
24:00 1013 29.91 843 24.89 7.2 45 50 -2.4 27.6